메인 페이지
METAR-TAF:

METAR-TAF

공항 :

이즈미트, 터키

위도: 40-44N, 경도: 030-05E, 고도: 50m

현재 날씨관측

예보는 27분 전, 19:50시(UTC)에 발표되었습니다.
무풍
온도 14°C
습도 100%
기압 1012 hPa
시정: 8000m

METAR: LTBQ 251950Z 00000KT 8000 NSC 14/14 Q1012 NOSIG

시각: 23:17 (20:17 UTC)

예보

예보는 3 시간 37분 전, 16:40시(UTC)에 발표되었습니다.
예보 대상 시간: 25일 18시부터 26일 03시까지 (UTC)
여러 방향의 바람 2kt
시정: 8000m
전환 중
26일 00시부터 26일 02시까지 (UTC)
시정: 4000m
고도 700ft 상공 구름 보통
고도 10000ft 상공 구름 보통
박무

TAF: LTBQ 251640Z 2518/2603 VRB02KT 8000 NSC BECMG 2600/2602 4000 BR SCT007 SCT100

4,000개 이상의 공항 관측 자료 및 예보 (METAR 및 TAF 보고).

지도상에서 검색 가능한 기상관측소가 노란 점과 빨간 점으로 표시되어 있습니다.

기상관측소 명을 보려면 표시 위로 마우스를 이동하세요.

날씨 관측과 예보를 보려면 클릭하세요.

지도 변경 : 확대하려면 엑스 표시가 있는 녹색 버튼, 축소하려면 빼기 표시가 있는 녹색 버튼, 다음 페이지의 지도를 보려면 녹색 화살표를 클릭하세요.


METAR-TAF: